This is the latest recevied weather packets stored in our database for station/object CW79215. If no packets are shown the sender has not sent any weather packets the latest 1 day(s).
| Time | Temp. | Humidity | Pressure | Rain* | Wind** | Luminosity | Snow |
|---|---|---|---|---|---|---|---|
| 1778058434 | 18.33° C | 56% | 1011 hPa | - | - | - | - |
| 1778056633 | 18.33° C | 55% | 1010.7 hPa | - | - | - | - |
| 1778055733 | 17.22° C | 60% | 1010.7 hPa | - | - | - | - |
| 1778054832 | 15.56° C | 64% | 1010.9 hPa | - | - | - | - |
| 1778053932 | 15.56° C | 63% | 1011 hPa | - | - | - | - |
| 1778052131 | 14.44° C | 69% | 1011.1 hPa | - | - | - | - |
| 1778050330 | 14.44° C | 68% | 1010.9 hPa | - | - | - | - |
| 1778049439 | 12.78° C | 72% | 1011.2 hPa | - | - | - | - |
| 1778048539 | 12.22° C | 72% | 1011 hPa | - | - | - | - |
| 1778047639 | 11.67° C | 74% | 1011.3 hPa | - | - | - | - |
| 1778046739 | 11.67° C | 75% | 1011.2 hPa | - | - | - | - |
| 1778045839 | 11.11° C | 75% | 1011.3 hPa | - | - | - | - |
| 1778044038 | 10.56° C | 78% | 1011.5 hPa | - | - | - | - |
| 1778043138 | 11.11° C | 74% | 1011.4 hPa | - | - | - | - |
| 1778042238 | 10.56° C | 77% | 1011.6 hPa | - | - | - | - |
| 1778041338 | 10° C | 80% | 1011.7 hPa | - | - | - | - |
| 1778040438 | 10.56° C | 79% | 1011.8 hPa | - | - | - | - |
| 1778039538 | 10.56° C | 77% | 1011.7 hPa | - | - | - | - |
| 1778038638 | 10.56° C | 78% | 1011.7 hPa | - | - | - | - |
| 1778037738 | 10° C | 80% | 1011.8 hPa | - | - | - | - |
| 1778035937 | 10.56° C | 79% | 1012.1 hPa | - | - | - | - |
| 1778035037 | 10.56° C | 79% | 1012.2 hPa | - | - | - | - |
| 1778034137 | 10.56° C | 79% | 1012.3 hPa | - | - | - | - |
* Rain since midnight (hover to see other rain measurements)
** Current wind speed in m/s (hover to see current wind gust speed)